createdAt,value
2019-02-03T00:00:50.379Z,1006.20
2019-02-03T00:01:50.363Z,1006.21
2019-02-03T00:02:50.352Z,1006.23
2019-02-03T00:03:50.333Z,1006.26
2019-02-03T00:04:50.319Z,1006.23
2019-02-03T00:05:50.311Z,1006.27
2019-02-03T00:06:50.297Z,1006.32
2019-02-03T00:07:50.289Z,1006.32
2019-02-03T00:08:50.276Z,1006.28
2019-02-03T00:09:50.264Z,1006.31
2019-02-03T00:10:50.252Z,1006.29
2019-02-03T00:11:50.234Z,1006.32
2019-02-03T00:12:50.222Z,1006.38
2019-02-03T00:13:50.214Z,1006.34
2019-02-03T00:14:50.201Z,1006.35
2019-02-03T00:15:50.185Z,1006.35
2019-02-03T00:16:50.171Z,1006.31
2019-02-03T00:17:50.155Z,1006.32
2019-02-03T00:18:50.148Z,1006.33
2019-02-03T00:19:50.137Z,1006.38
2019-02-03T00:20:50.124Z,1006.33
2019-02-03T00:21:50.110Z,1006.36
2019-02-03T00:22:50.099Z,1006.32
2019-02-03T00:23:50.081Z,1006.34
2019-02-03T00:24:50.066Z,1006.32
2019-02-03T00:25:50.058Z,1006.37
2019-02-03T00:26:50.043Z,1006.34
2019-02-03T00:27:50.036Z,1006.38
2019-02-03T00:28:50.024Z,1006.38
2019-02-03T00:29:50.004Z,1006.41
2019-02-03T00:30:49.993Z,1006.48
2019-02-03T00:31:49.983Z,1006.52
2019-02-03T00:32:51.772Z,1006.54
2019-02-03T00:33:49.958Z,1006.57
2019-02-03T00:34:49.943Z,1006.51
2019-02-03T00:35:49.924Z,1006.50
2019-02-03T00:36:49.912Z,1006.49
2019-02-03T00:37:49.934Z,1006.48
2019-02-03T00:38:49.952Z,1006.52
2019-02-03T00:39:49.880Z,1006.57
2019-02-03T00:40:49.868Z,1006.58
2019-02-03T00:41:49.965Z,1006.65
2019-02-03T00:42:49.838Z,1006.66
2019-02-03T00:43:49.825Z,1006.68
2019-02-03T00:44:49.808Z,1006.68
2019-02-03T00:45:49.800Z,1006.78
2019-02-03T00:46:49.787Z,1006.72
2019-02-03T00:47:49.769Z,1006.77
2019-02-03T00:48:49.757Z,1006.76
2019-02-03T00:49:49.746Z,1006.76
2019-02-03T00:50:49.733Z,1006.75
2019-02-03T00:51:49.724Z,1006.80
2019-02-03T00:52:49.710Z,1006.76
2019-02-03T00:53:49.699Z,1006.81
2019-02-03T00:54:49.684Z,1006.77
2019-02-03T00:55:49.667Z,1006.82
2019-02-03T00:56:49.654Z,1006.84
2019-02-03T00:57:49.638Z,1006.91
2019-02-03T00:58:49.626Z,1006.96
2019-02-03T00:59:49.617Z,1007.02
2019-02-03T01:00:49.605Z,1007.05
2019-02-03T01:01:49.584Z,1007.09
2019-02-03T01:02:49.571Z,1007.11
2019-02-03T01:03:49.563Z,1007.12
2019-02-03T01:04:49.549Z,1007.18
2019-02-03T01:05:49.540Z,1007.17
2019-02-03T01:06:49.526Z,1007.19
2019-02-03T01:07:49.513Z,1007.13
2019-02-03T01:08:49.496Z,1007.29
2019-02-03T01:09:49.485Z,1007.21
2019-02-03T01:10:49.468Z,1007.23
2019-02-03T01:11:49.460Z,1007.30
2019-02-03T01:12:49.446Z,1007.39
2019-02-03T01:13:49.434Z,1007.35
2019-02-03T01:14:49.418Z,1007.35
2019-02-03T01:15:49.401Z,1007.38
2019-02-03T01:16:49.385Z,1007.40
2019-02-03T01:17:49.377Z,1007.41
2019-02-03T01:18:49.364Z,1007.40
2019-02-03T01:19:49.349Z,1007.47
2019-02-03T01:20:49.335Z,1007.42
2019-02-03T01:21:49.325Z,1007.48
2019-02-03T01:22:49.310Z,1007.46
2019-02-03T01:23:49.304Z,1007.50
2019-02-03T01:24:49.289Z,1007.40
2019-02-03T01:25:49.273Z,1007.44
2019-02-03T01:26:49.261Z,1007.45
2019-02-03T01:27:49.244Z,1007.46
2019-02-03T01:28:49.232Z,1007.51
2019-02-03T01:29:49.214Z,1007.49
2019-02-03T01:30:49.202Z,1007.57
2019-02-03T01:31:49.417Z,1007.59
2019-02-03T01:32:49.177Z,1007.61
2019-02-03T01:33:49.160Z,1007.61
2019-02-03T01:34:49.149Z,1007.61
2019-02-03T01:35:49.140Z,1007.63
2019-02-03T01:36:49.125Z,1007.67
2019-02-03T01:37:49.115Z,1007.61
2019-02-03T01:38:49.101Z,1007.64
2019-02-03T01:39:49.084Z,1007.66
2019-02-03T01:40:49.201Z,1007.63
2019-02-03T01:41:49.054Z,1007.66
2019-02-03T01:42:49.041Z,1007.64
2019-02-03T01:43:49.033Z,1007.62
2019-02-03T01:44:49.022Z,1007.66
2019-02-03T01:45:49.008Z,1007.69
2019-02-03T01:46:48.995Z,1007.64
2019-02-03T01:47:48.978Z,1007.68
2019-02-03T01:48:48.963Z,1007.70
2019-02-03T01:49:48.954Z,1007.73
2019-02-03T01:50:48.942Z,1007.72
2019-02-03T01:51:48.924Z,1007.75
2019-02-03T01:52:48.910Z,1007.84
2019-02-03T01:53:48.894Z,1007.83
2019-02-03T01:54:48.883Z,1007.82
2019-02-03T01:55:48.873Z,1007.85
2019-02-03T01:56:48.860Z,1007.83
2019-02-03T01:57:48.847Z,1007.83
2019-02-03T01:58:48.833Z,1007.83
2019-02-03T01:59:48.817Z,1007.88
2019-02-03T02:00:48.801Z,1007.88
2019-02-03T02:01:48.793Z,1007.86
2019-02-03T02:02:48.777Z,1007.96
2019-02-03T02:03:48.771Z,1007.97
2019-02-03T02:04:48.754Z,1007.97
2019-02-03T02:05:48.737Z,1007.99
2019-02-03T02:06:48.724Z,1008.05
2019-02-03T02:07:51.540Z,1008.00
2019-02-03T02:08:48.703Z,1008.01
2019-02-03T02:09:48.688Z,1008.03
2019-02-03T02:10:48.672Z,1008.09
2019-02-03T02:11:48.654Z,1008.09
2019-02-03T02:12:48.639Z,1008.06
2019-02-03T02:13:48.631Z,1008.16
2019-02-03T02:14:48.616Z,1008.17
2019-02-03T02:15:48.605Z,1008.20
2019-02-03T02:16:48.593Z,1008.22
2019-02-03T02:17:48.583Z,1008.21
2019-02-03T02:18:48.567Z,1008.23
2019-02-03T02:19:48.549Z,1008.25
2019-02-03T02:20:48.536Z,1008.26
2019-02-03T02:21:48.529Z,1008.31
2019-02-03T02:22:48.514Z,1008.30
2019-02-03T02:23:48.498Z,1008.34
2019-02-03T02:24:48.486Z,1008.34
2019-02-03T02:25:48.468Z,1008.37
2019-02-03T02:26:48.453Z,1008.35
2019-02-03T02:27:48.446Z,1008.37
2019-02-03T02:28:48.434Z,1008.40
2019-02-03T02:29:48.420Z,1008.35
2019-02-03T02:30:48.407Z,1008.25
2019-02-03T02:31:48.390Z,1008.32
2019-02-03T02:32:48.376Z,1008.33
2019-02-03T02:33:48.366Z,1008.26
2019-02-03T02:34:48.351Z,1008.30
2019-02-03T02:35:48.343Z,1008.26
2019-02-03T02:36:48.329Z,1008.26
2019-02-03T02:37:48.317Z,1008.29
2019-02-03T02:38:48.312Z,1008.30
2019-02-03T02:39:48.292Z,1008.31
2019-02-03T02:40:48.278Z,1008.31
2019-02-03T02:41:48.261Z,1008.30
2019-02-03T02:42:48.252Z,1008.27
2019-02-03T02:43:48.232Z,1008.29
2019-02-03T02:44:48.216Z,1008.24
2019-02-03T02:45:48.295Z,1008.31
2019-02-03T02:46:48.197Z,1008.28
2019-02-03T02:47:48.183Z,1008.29
2019-02-03T02:48:48.169Z,1008.23
2019-02-03T02:49:48.152Z,1008.32
2019-02-03T02:50:48.141Z,1008.27
2019-02-03T02:51:48.132Z,1008.29
2019-02-03T02:52:48.119Z,1008.30
2019-02-03T02:53:48.101Z,1008.25
2019-02-03T02:54:48.088Z,1008.33
2019-02-03T02:55:48.085Z,1008.32
2019-02-03T02:56:48.070Z,1008.33
2019-02-03T02:57:48.056Z,1008.34
2019-02-03T02:58:48.070Z,1008.33
2019-02-03T02:59:48.027Z,1008.40
2019-02-03T03:00:48.018Z,1008.39
2019-02-03T03:01:47.999Z,1008.39
2019-02-03T03:02:47.993Z,1008.36
2019-02-03T03:03:47.978Z,1008.43
2019-02-03T03:04:47.964Z,1008.40
2019-02-03T03:05:47.949Z,1008.45
2019-02-03T03:06:47.937Z,1008.42
2019-02-03T03:07:47.928Z,1008.38
2019-02-03T03:08:47.905Z,1008.46
2019-02-03T03:09:47.900Z,1008.51
2019-02-03T03:10:47.886Z,1008.54
2019-02-03T03:11:47.867Z,1008.59
2019-02-03T03:12:48.023Z,1008.52
2019-02-03T03:13:47.844Z,1008.57
2019-02-03T03:14:47.834Z,1008.60
2019-02-03T03:15:47.824Z,1008.54
2019-02-03T03:16:47.811Z,1008.55
2019-02-03T03:17:47.796Z,1008.62
2019-02-03T03:18:47.785Z,1008.63
2019-02-03T03:19:47.766Z,1008.62
2019-02-03T03:20:47.755Z,1008.63
2019-02-03T03:21:47.738Z,1008.60
2019-02-03T03:22:47.729Z,1008.56
2019-02-03T03:23:47.717Z,1008.56
2019-02-03T03:24:47.705Z,1008.50
2019-02-03T03:25:47.685Z,1008.55
2019-02-03T03:26:47.674Z,1008.58
2019-02-03T03:27:47.668Z,1008.54
2019-02-03T03:28:47.652Z,1008.61
2019-02-03T03:29:47.642Z,1008.56
2019-02-03T03:30:47.630Z,1008.55
2019-02-03T03:31:47.630Z,1008.54
2019-02-03T03:32:47.611Z,1008.57
2019-02-03T03:33:47.587Z,1008.64
2019-02-03T03:34:47.573Z,1008.62
2019-02-03T03:35:47.565Z,1008.63
2019-02-03T03:36:47.553Z,1008.60
2019-02-03T03:37:47.539Z,1008.59
2019-02-03T03:38:47.525Z,1008.61
2019-02-03T03:39:47.509Z,1008.61
2019-02-03T03:40:47.492Z,1008.59
2019-02-03T03:41:47.484Z,1008.56
2019-02-03T03:42:47.475Z,1008.58
2019-02-03T03:43:47.453Z,1008.58
2019-02-03T03:44:47.441Z,1008.60
2019-02-03T03:45:47.432Z,1008.59
2019-02-03T03:46:47.419Z,1008.60
2019-02-03T03:47:47.410Z,1008.63
2019-02-03T03:48:47.397Z,1008.67
2019-02-03T03:49:47.386Z,1008.68
2019-02-03T03:50:47.369Z,1008.67
2019-02-03T03:51:47.351Z,1008.68
2019-02-03T03:52:47.338Z,1008.70
2019-02-03T03:53:47.328Z,1008.73
2019-02-03T03:54:47.316Z,1008.79
2019-02-03T03:55:47.308Z,1008.83
2019-02-03T03:56:47.292Z,1008.87
2019-02-03T03:57:47.277Z,1008.89
2019-02-03T03:58:47.266Z,1008.88
2019-02-03T03:59:47.257Z,1008.85
2019-02-03T04:00:47.244Z,1008.93
2019-02-03T04:01:47.227Z,1008.93
2019-02-03T04:02:47.215Z,1008.86
2019-02-03T04:03:47.198Z,1008.89
2019-02-03T04:04:47.184Z,1008.83
2019-02-03T04:05:47.172Z,1008.86
2019-02-03T04:06:47.159Z,1008.86
2019-02-03T04:07:47.154Z,1008.92
2019-02-03T04:08:47.139Z,1008.91
2019-02-03T04:09:47.127Z,1008.91
2019-02-03T04:10:47.115Z,1008.86
2019-02-03T04:11:47.101Z,1008.89
2019-02-03T04:12:47.086Z,1008.92
2019-02-03T04:13:47.077Z,1008.88
2019-02-03T04:14:47.064Z,1008.89
2019-02-03T04:15:47.045Z,1008.86
2019-02-03T04:16:47.033Z,1008.90
2019-02-03T04:17:47.019Z,1008.85
2019-02-03T04:18:47.007Z,1008.94
2019-02-03T04:19:47.000Z,1008.91
2019-02-03T04:20:46.983Z,1008.97
2019-02-03T04:21:46.975Z,1008.99
2019-02-03T04:22:46.963Z,1009.06
2019-02-03T04:23:46.941Z,1009.03
2019-02-03T04:24:46.927Z,1009.09
2019-02-03T04:25:46.920Z,1009.14
2019-02-03T04:26:46.906Z,1009.22
2019-02-03T04:27:46.899Z,1009.26
2019-02-03T04:28:46.885Z,1009.36
2019-02-03T04:29:46.866Z,1009.38
2019-02-03T04:30:46.853Z,1009.41
2019-02-03T04:31:46.847Z,1009.47
2019-02-03T04:32:46.832Z,1009.47
2019-02-03T04:33:46.817Z,1009.59
2019-02-03T04:34:46.807Z,1009.62
2019-02-03T04:35:46.788Z,1009.64
2019-02-03T04:36:46.774Z,1009.67
2019-02-03T04:37:46.766Z,1009.78
2019-02-03T04:38:57.759Z,1009.77
2019-02-03T04:39:46.740Z,1009.86
2019-02-03T04:40:46.728Z,1009.90
2019-02-03T04:41:46.718Z,1009.93
2019-02-03T04:42:46.844Z,1009.99
2019-02-03T04:43:46.685Z,1010.05
2019-02-03T04:44:46.673Z,1010.09
2019-02-03T04:45:46.665Z,1010.13
2019-02-03T04:46:46.652Z,1010.15
2019-02-03T04:47:46.636Z,1010.18
2019-02-03T04:48:46.622Z,1010.25
2019-02-03T04:49:46.607Z,1010.24
2019-02-03T04:50:46.595Z,1010.29
2019-02-03T04:51:46.587Z,1010.36
2019-02-03T04:52:46.573Z,1010.39
2019-02-03T04:53:46.561Z,1010.42
2019-02-03T04:54:46.550Z,1010.44
2019-02-03T04:55:46.533Z,1010.45
2019-02-03T04:56:46.681Z,1010.48
2019-02-03T04:57:46.503Z,1010.52
2019-02-03T04:58:46.492Z,1010.52
2019-02-03T04:59:46.483Z,1010.55
2019-02-03T05:00:46.471Z,1010.54
2019-02-03T05:01:46.451Z,1010.57
2019-02-03T05:02:46.440Z,1010.59
2019-02-03T05:03:46.432Z,1010.59
2019-02-03T05:04:46.418Z,1010.62
2019-02-03T05:05:46.409Z,1010.63
2019-02-03T05:06:46.396Z,1010.63
2019-02-03T05:07:46.381Z,1010.67
2019-02-03T05:08:46.365Z,1010.69
2019-02-03T05:09:46.351Z,1010.67
2019-02-03T05:10:46.340Z,1010.69
2019-02-03T05:11:46.352Z,1010.66
2019-02-03T05:12:46.438Z,1010.71
2019-02-03T05:13:46.305Z,1010.67
2019-02-03T05:14:46.290Z,1010.66
2019-02-03T05:15:46.276Z,1010.65
2019-02-03T05:16:46.262Z,1010.65
2019-02-03T05:17:46.258Z,1010.64
2019-02-03T05:18:46.240Z,1010.59
2019-02-03T05:19:46.222Z,1010.58
2019-02-03T05:20:46.209Z,1010.61
2019-02-03T05:21:46.198Z,1010.60
2019-02-03T05:22:46.186Z,1010.66
2019-02-03T05:23:46.177Z,1010.65
2019-02-03T05:24:46.166Z,1010.74
2019-02-03T05:25:46.151Z,1010.73
2019-02-03T05:26:46.138Z,1010.76
2019-02-03T05:27:46.124Z,1010.81
2019-02-03T05:28:46.120Z,1010.85
2019-02-03T05:29:46.092Z,1010.88
2019-02-03T05:30:46.081Z,1010.88
2019-02-03T05:31:46.070Z,1010.91
2019-02-03T05:32:46.057Z,1010.90
2019-02-03T05:33:46.039Z,1010.92
2019-02-03T05:34:46.026Z,1010.94
2019-02-03T05:35:46.166Z,1010.97
2019-02-03T05:36:46.007Z,1011.05
2019-02-03T05:37:45.994Z,1011.06
2019-02-03T05:38:45.981Z,1011.07
2019-02-03T05:39:45.967Z,1011.11
2019-02-03T05:40:45.950Z,1011.17
2019-02-03T05:41:45.938Z,1011.24
2019-02-03T05:42:46.121Z,1011.31
2019-02-03T05:43:45.915Z,1011.34
2019-02-03T05:44:45.902Z,1011.38
2019-02-03T05:45:45.887Z,1011.43
2019-02-03T05:46:45.873Z,1011.42
2019-02-03T05:47:45.857Z,1011.46
2019-02-03T05:48:45.841Z,1011.51
2019-02-03T05:49:45.833Z,1011.49
2019-02-03T05:50:45.821Z,1011.49
2019-02-03T05:51:45.805Z,1011.50
2019-02-03T05:52:45.791Z,1011.49
2019-02-03T05:53:45.780Z,1011.50
2019-02-03T05:54:45.769Z,1011.46
2019-02-03T05:55:45.758Z,1011.47
2019-02-03T05:56:45.745Z,1011.48
2019-02-03T05:57:45.730Z,1011.45
2019-02-03T05:58:45.718Z,1011.46
2019-02-03T05:59:45.700Z,1011.47
2019-02-03T06:00:45.687Z,1011.49
2019-02-03T06:01:45.676Z,1011.49
2019-02-03T06:02:45.661Z,1011.57
2019-02-03T06:03:45.654Z,1011.55
2019-02-03T06:04:45.639Z,1011.58
2019-02-03T06:05:45.626Z,1011.64
2019-02-03T06:06:45.612Z,1011.69
2019-02-03T06:07:45.604Z,1011.63
2019-02-03T06:08:45.590Z,1011.64
2019-02-03T06:09:45.573Z,1011.64
2019-02-03T06:10:45.560Z,1011.64
2019-02-03T06:11:45.553Z,1011.71
2019-02-03T06:12:45.530Z,1011.73
2019-02-03T06:13:45.517Z,1011.70
2019-02-03T06:14:45.512Z,1011.68
2019-02-03T06:15:45.504Z,1011.72
2019-02-03T06:16:45.483Z,1011.72
2019-02-03T06:17:45.473Z,1011.75
2019-02-03T06:18:45.459Z,1011.77
2019-02-03T06:19:45.442Z,1011.75
2019-02-03T06:20:45.429Z,1011.70
2019-02-03T06:21:45.421Z,1011.73
2019-02-03T06:22:45.408Z,1011.79
2019-02-03T06:23:45.401Z,1011.77
2019-02-03T06:24:45.377Z,1011.74
2019-02-03T06:25:45.363Z,1011.72
2019-02-03T06:26:45.351Z,1011.74
2019-02-03T06:27:45.340Z,1011.75
2019-02-03T06:28:45.327Z,1011.84
2019-02-03T06:29:45.315Z,1011.86
2019-02-03T06:30:45.302Z,1011.85
2019-02-03T06:31:45.285Z,1011.86
2019-02-03T06:32:45.271Z,1011.84
2019-02-03T06:33:45.263Z,1011.82
2019-02-03T06:34:45.254Z,1011.87
2019-02-03T06:35:45.240Z,1011.80
2019-02-03T06:36:45.226Z,1011.82
2019-02-03T06:37:45.210Z,1011.84
2019-02-03T06:38:45.198Z,1011.85
2019-02-03T06:39:48.609Z,1011.88
2019-02-03T06:40:45.175Z,1011.90
2019-02-03T06:41:45.159Z,1011.94
2019-02-03T06:42:45.146Z,1011.95
2019-02-03T06:43:45.131Z,1011.93
2019-02-03T06:44:45.118Z,1011.92
2019-02-03T06:45:45.106Z,1011.90
2019-02-03T06:46:45.090Z,1011.91
2019-02-03T06:47:45.080Z,1011.90
2019-02-03T06:48:45.067Z,1011.92
2019-02-03T06:49:45.061Z,1011.96
2019-02-03T06:50:45.044Z,1011.98
2019-02-03T06:51:45.028Z,1011.99
2019-02-03T06:52:45.013Z,1012.02
2019-02-03T06:53:45.029Z,1012.05
2019-02-03T06:54:44.991Z,1012.00
2019-02-03T06:55:44.975Z,1011.99
2019-02-03T06:56:44.964Z,1012.00
2019-02-03T06:57:44.943Z,1012.03
2019-02-03T06:58:44.931Z,1012.04
2019-02-03T06:59:51.139Z,1012.04
2019-02-03T07:00:44.968Z,1012.02
2019-02-03T07:01:44.896Z,1012.01
2019-02-03T07:02:44.882Z,1011.98
2019-02-03T07:03:44.865Z,1011.98
2019-02-03T07:04:44.852Z,1011.94
2019-02-03T07:05:44.972Z,1011.96
2019-02-03T07:06:44.826Z,1012.00
2019-02-03T07:07:44.819Z,1011.95
2019-02-03T07:08:44.804Z,1012.08
2019-02-03T07:09:44.787Z,1012.01
2019-02-03T07:10:44.773Z,1012.07
2019-02-03T07:11:44.765Z,1012.05
2019-02-03T07:12:44.750Z,1012.06
2019-02-03T07:13:44.735Z,1012.10
2019-02-03T07:14:44.723Z,1012.08
2019-02-03T07:15:44.704Z,1012.14
2019-02-03T07:16:44.690Z,1012.16
2019-02-03T07:17:44.674Z,1012.15
2019-02-03T07:18:44.662Z,1012.19
2019-02-03T07:19:44.652Z,1012.26
2019-02-03T07:20:44.640Z,1012.20
2019-02-03T07:21:44.628Z,1012.14
2019-02-03T07:22:44.615Z,1012.10
2019-02-03T07:23:44.598Z,1012.19
2019-02-03T07:24:44.582Z,1012.18
2019-02-03T07:25:44.573Z,1012.17
2019-02-03T07:26:44.560Z,1012.23
2019-02-03T07:27:44.543Z,1012.22
2019-02-03T07:28:44.526Z,1012.23
2019-02-03T07:29:44.512Z,1012.24
2019-02-03T07:30:44.498Z,1012.25
2019-02-03T07:31:44.489Z,1012.27
2019-02-03T07:32:44.474Z,1012.35
2019-02-03T07:33:44.459Z,1012.37
2019-02-03T07:34:44.447Z,1012.34
2019-02-03T07:35:44.431Z,1012.39
2019-02-03T07:36:44.416Z,1012.42
2019-02-03T07:37:44.403Z,1012.45
2019-02-03T07:38:44.393Z,1012.41
2019-02-03T07:39:44.383Z,1012.45
2019-02-03T07:40:44.369Z,1012.45
2019-02-03T07:41:44.348Z,1012.53
2019-02-03T07:42:44.334Z,1012.48
2019-02-03T07:43:44.326Z,1012.53
2019-02-03T07:44:44.313Z,1012.53
2019-02-03T07:45:44.294Z,1012.55
2019-02-03T07:46:44.281Z,1012.54
2019-02-03T07:47:44.263Z,1012.59
2019-02-03T07:48:44.249Z,1012.60
2019-02-03T07:49:44.237Z,1012.59
2019-02-03T07:50:44.222Z,1012.65
2019-02-03T07:51:44.213Z,1012.61
2019-02-03T07:52:44.202Z,1012.63
2019-02-03T07:53:44.187Z,1012.65
2019-02-03T07:54:44.175Z,1012.65
2019-02-03T07:55:44.157Z,1012.66
2019-02-03T07:56:44.142Z,1012.67
2019-02-03T07:57:44.133Z,1012.67
2019-02-03T07:58:44.119Z,1012.73
2019-02-03T07:59:44.108Z,1012.82
2019-02-03T08:00:44.087Z,1012.88
2019-02-03T08:01:44.070Z,1012.92
2019-02-03T08:02:44.056Z,1012.96
2019-02-03T08:03:44.050Z,1012.96
2019-02-03T08:04:44.035Z,1013.01
2019-02-03T08:05:44.024Z,1012.98
2019-02-03T08:06:44.013Z,1013.07
2019-02-03T08:07:43.994Z,1013.03
2019-02-03T08:08:43.982Z,1013.03
2019-02-03T08:09:43.966Z,1013.11
2019-02-03T08:10:43.953Z,1013.13
2019-02-03T08:11:43.947Z,1013.15
2019-02-03T08:12:43.933Z,1013.21
2019-02-03T08:13:43.917Z,1013.27
2019-02-03T08:14:43.903Z,1013.32
2019-02-03T08:15:43.898Z,1013.37
2019-02-03T08:16:43.884Z,1013.46
2019-02-03T08:17:43.877Z,1013.48
2019-02-03T08:18:43.865Z,1013.54
2019-02-03T08:19:43.848Z,1013.62
2019-02-03T08:20:43.838Z,1013.60
2019-02-03T08:21:43.827Z,1013.51
2019-02-03T08:22:43.816Z,1013.48
2019-02-03T08:23:43.810Z,1013.54
2019-02-03T08:24:43.800Z,1013.70
2019-02-03T08:25:43.788Z,1013.59
2019-02-03T08:26:43.781Z,1013.47
2019-02-03T08:27:43.768Z,1013.56
2019-02-03T08:28:43.753Z,1013.70
2019-02-03T08:29:43.749Z,1013.76
2019-02-03T08:30:43.741Z,1013.69
2019-02-03T08:31:43.726Z,1013.85
2019-02-03T08:32:43.722Z,1013.84
2019-02-03T08:33:43.711Z,1013.85
2019-02-03T08:34:43.702Z,1013.88
2019-02-03T08:35:43.705Z,1013.85
2019-02-03T08:36:43.688Z,1013.95
2019-02-03T08:37:43.824Z,1013.87
2019-02-03T08:38:43.676Z,1013.97
2019-02-03T08:39:43.663Z,1014.01
2019-02-03T08:40:43.653Z,1014.07
2019-02-03T08:41:43.641Z,1014.10
2019-02-03T08:42:43.635Z,1014.10
2019-02-03T08:43:43.632Z,1014.11
2019-02-03T08:44:43.630Z,1014.14
2019-02-03T08:45:43.612Z,1014.20
2019-02-03T08:46:43.609Z,1014.25
2019-02-03T08:47:45.503Z,1014.30
2019-02-03T08:48:43.600Z,1014.31
2019-02-03T08:49:43.593Z,1014.31
2019-02-03T08:50:43.624Z,1014.29
2019-02-03T08:51:43.581Z,1014.36
2019-02-03T08:52:43.573Z,1014.35
2019-02-03T08:53:43.566Z,1014.44
2019-02-03T08:54:50.879Z,1014.44
2019-02-03T08:55:43.560Z,1014.47
2019-02-03T08:56:43.554Z,1014.45
2019-02-03T08:57:43.548Z,1014.48
2019-02-03T08:58:43.548Z,1014.60
2019-02-03T08:59:43.534Z,1014.59
2019-02-03T09:00:43.528Z,1014.29
2019-02-03T09:01:43.531Z,1014.62
2019-02-03T09:02:43.529Z,1014.65
2019-02-03T09:03:43.517Z,1014.73
2019-02-03T09:04:43.514Z,1014.25
2019-02-03T09:05:43.578Z,1014.22
2019-02-03T09:06:43.513Z,1014.28
2019-02-03T09:07:43.511Z,1014.24
2019-02-03T09:08:43.507Z,1014.26
2019-02-03T09:09:43.502Z,1014.27
2019-02-03T09:10:48.631Z,1014.22
2019-02-03T09:11:43.495Z,1014.22
2019-02-03T09:12:43.490Z,1014.17
2019-02-03T09:13:43.490Z,1014.25
2019-02-03T09:14:43.486Z,1014.23
2019-02-03T09:15:43.491Z,1014.23
2019-02-03T09:16:43.486Z,1014.24
2019-02-03T09:17:43.480Z,1014.28
2019-02-03T09:18:43.477Z,1014.29
2019-02-03T09:19:43.479Z,1014.26
2019-02-03T09:20:43.475Z,1014.19
2019-02-03T09:21:43.471Z,1014.30
2019-02-03T09:22:43.470Z,1014.34
2019-02-03T09:23:43.462Z,1014.29
2019-02-03T09:24:43.458Z,1014.37
2019-02-03T09:25:43.455Z,1014.36
2019-02-03T09:26:43.454Z,1014.39
2019-02-03T09:27:43.456Z,1014.42
2019-02-03T09:28:43.451Z,1014.44
2019-02-03T09:29:43.450Z,1014.46
2019-02-03T09:30:43.447Z,1014.46
2019-02-03T09:31:43.441Z,1014.55
2019-02-03T09:32:43.444Z,1014.56
2019-02-03T09:33:43.440Z,1014.60
2019-02-03T09:34:43.438Z,1014.65
2019-02-03T09:35:43.433Z,1014.64
2019-02-03T09:36:43.429Z,1014.63
2019-02-03T09:37:43.428Z,1014.60
2019-02-03T09:38:43.424Z,1014.63
2019-02-03T09:39:43.429Z,1014.66
2019-02-03T09:40:43.425Z,1014.67
2019-02-03T09:41:43.425Z,1014.62
2019-02-03T09:42:43.425Z,1014.65
2019-02-03T09:43:43.418Z,1014.68
2019-02-03T09:44:43.417Z,1014.66
2019-02-03T09:45:43.427Z,1014.70
2019-02-03T09:46:43.421Z,1014.69
2019-02-03T09:47:43.426Z,1014.67
2019-02-03T09:48:43.422Z,1014.70
2019-02-03T09:49:43.425Z,1014.74
2019-02-03T09:50:43.420Z,1014.79
2019-02-03T09:51:43.425Z,1014.80
2019-02-03T09:52:43.432Z,1014.88
2019-02-03T09:53:43.423Z,1014.86
2019-02-03T09:54:43.425Z,1014.86
2019-02-03T09:55:43.421Z,1014.91
2019-02-03T09:56:43.421Z,1014.95
2019-02-03T09:57:43.422Z,1014.94
2019-02-03T09:58:43.424Z,1014.96
2019-02-03T09:59:43.428Z,1014.93
2019-02-03T10:00:43.430Z,1014.97
2019-02-03T10:01:43.434Z,1014.96
2019-02-03T10:02:43.436Z,1014.99
2019-02-03T10:03:43.434Z,1015.03
2019-02-03T10:04:43.435Z,1015.04
2019-02-03T10:05:43.441Z,1015.06
2019-02-03T10:06:43.443Z,1015.05
2019-02-03T10:07:43.441Z,1015.09
2019-02-03T10:08:43.451Z,1015.07
2019-02-03T10:09:43.442Z,1015.10
2019-02-03T10:10:43.443Z,1015.09
2019-02-03T10:11:43.452Z,1015.13
2019-02-03T10:12:43.452Z,1015.14
2019-02-03T10:13:43.458Z,1015.20
2019-02-03T10:14:43.461Z,1015.18
2019-02-03T10:15:43.458Z,1015.19
2019-02-03T10:16:43.458Z,1015.20
2019-02-03T10:17:43.457Z,1015.23
2019-02-03T10:18:43.461Z,1015.09
2019-02-03T10:19:43.471Z,1015.07
2019-02-03T10:20:43.469Z,1015.22
2019-02-03T10:21:43.469Z,1015.27
2019-02-03T10:22:43.470Z,1015.27
2019-02-03T10:23:43.476Z,1015.24
2019-02-03T10:24:43.478Z,1015.32
2019-02-03T10:25:43.483Z,1015.20
2019-02-03T10:26:43.487Z,1015.18
2019-02-03T10:27:43.482Z,1015.30
2019-02-03T10:28:43.484Z,1015.32
2019-02-03T10:29:43.490Z,1015.35
2019-02-03T10:30:43.493Z,1015.37
2019-02-03T10:31:43.496Z,1015.39
2019-02-03T10:32:43.499Z,1015.38
2019-02-03T10:33:43.498Z,1015.41
2019-02-03T10:34:43.498Z,1015.47
2019-02-03T10:35:43.495Z,1015.49
2019-02-03T10:36:43.498Z,1015.50
2019-02-03T10:37:43.504Z,1015.45
2019-02-03T10:38:43.506Z,1015.35
2019-02-03T10:39:43.504Z,1015.36
2019-02-03T10:40:43.516Z,1015.42
2019-02-03T10:41:43.511Z,1015.53
2019-02-03T10:42:43.510Z,1015.51
2019-02-03T10:43:43.518Z,1015.47
2019-02-03T10:44:43.519Z,1015.63
2019-02-03T10:45:43.521Z,1015.50
2019-02-03T10:46:43.523Z,1015.53
2019-02-03T10:47:43.518Z,1015.62
2019-02-03T10:48:43.521Z,1015.58
2019-02-03T10:49:46.514Z,1015.70
2019-02-03T10:50:43.519Z,1015.65
2019-02-03T10:51:43.524Z,1015.63
2019-02-03T10:52:43.523Z,1015.55
2019-02-03T10:53:43.527Z,1015.59
2019-02-03T10:54:43.525Z,1015.60
2019-02-03T10:55:43.527Z,1015.63
2019-02-03T10:56:43.526Z,1015.61
2019-02-03T10:57:43.690Z,1015.61
2019-02-03T10:58:43.527Z,1015.57
2019-02-03T10:59:43.524Z,1015.63
2019-02-03T11:00:43.522Z,1015.65
2019-02-03T11:01:43.521Z,1015.69
2019-02-03T11:02:43.520Z,1015.71
2019-02-03T11:03:43.523Z,1015.67
2019-02-03T11:04:43.520Z,1015.70
2019-02-03T11:05:43.524Z,1015.65
2019-02-03T11:06:43.515Z,1015.68
2019-02-03T11:07:43.508Z,1015.64
2019-02-03T11:08:43.509Z,1015.73
2019-02-03T11:09:43.508Z,1015.73
2019-02-03T11:10:43.506Z,1015.75
2019-02-03T11:11:43.499Z,1015.74
2019-02-03T11:12:43.494Z,1015.87
2019-02-03T11:13:43.492Z,1015.94
2019-02-03T11:14:43.490Z,1015.98
2019-02-03T11:15:43.492Z,1016.04
2019-02-03T11:16:43.488Z,1015.97
2019-02-03T11:17:43.482Z,1016.05
2019-02-03T11:18:43.479Z,1016.09
2019-02-03T11:19:43.476Z,1016.01
2019-02-03T11:20:43.594Z,1016.17
2019-02-03T11:21:43.469Z,1016.17
2019-02-03T11:22:43.468Z,1016.14
2019-02-03T11:23:43.474Z,1016.01
2019-02-03T11:24:43.468Z,1016.05
2019-02-03T11:25:43.463Z,1016.08
2019-02-03T11:26:43.462Z,1016.09
2019-02-03T11:27:43.464Z,1016.10
2019-02-03T11:28:43.464Z,1016.10
2019-02-03T11:29:43.462Z,1015.99
2019-02-03T11:30:43.459Z,1016.06
2019-02-03T11:31:43.452Z,1016.07
2019-02-03T11:32:43.451Z,1016.12
2019-02-03T11:33:43.450Z,1016.23
2019-02-03T11:34:43.447Z,1016.16
2019-02-03T11:35:43.453Z,1016.12
2019-02-03T11:36:43.453Z,1016.12
2019-02-03T11:37:43.450Z,1016.13
2019-02-03T11:38:43.448Z,1016.07
2019-02-03T11:39:43.449Z,1016.14
2019-02-03T11:40:43.440Z,1016.19
2019-02-03T11:41:49.114Z,1016.18
2019-02-03T11:42:43.440Z,1016.19
2019-02-03T11:43:43.566Z,1016.21
2019-02-03T11:44:43.431Z,1016.19
2019-02-03T11:45:43.428Z,1016.14
2019-02-03T11:46:43.419Z,1016.19
2019-02-03T11:47:43.422Z,1016.23
2019-02-03T11:48:43.420Z,1016.19
2019-02-03T11:49:43.417Z,1016.19
2019-02-03T11:50:43.412Z,1016.33
2019-02-03T11:51:43.401Z,1016.28
2019-02-03T11:52:43.396Z,1016.24
2019-02-03T11:53:43.396Z,1016.28
2019-02-03T11:54:43.393Z,1016.29
2019-02-03T11:55:43.390Z,1016.26
2019-02-03T11:56:43.383Z,1016.27
2019-02-03T11:57:43.375Z,1016.27
2019-02-03T11:58:43.372Z,1016.28
2019-02-03T11:59:43.369Z,1016.25
2019-02-03T12:00:43.369Z,1016.25
2019-02-03T12:01:43.470Z,1016.25
2019-02-03T12:02:43.350Z,1016.26
2019-02-03T12:03:43.339Z,1016.32
2019-02-03T12:04:43.333Z,1016.32
2019-02-03T12:05:43.327Z,1016.35